createdAt,value
2022-11-22T00:01:21.188Z,86.76
2022-11-22T00:03:49.721Z,86.91
2022-11-22T00:06:17.748Z,87.04
2022-11-22T00:08:45.907Z,87.06
2022-11-22T00:11:14.235Z,87.33
2022-11-22T00:13:42.345Z,87.39
2022-11-22T00:16:10.579Z,87.28
2022-11-22T00:18:39.134Z,87.23
2022-11-22T00:21:08.094Z,87.19
2022-11-22T00:23:36.296Z,87.17
2022-11-22T00:26:04.819Z,87.14
2022-11-22T00:28:33.175Z,86.83
2022-11-22T00:31:01.436Z,86.62
2022-11-22T00:33:29.697Z,86.83
2022-11-22T00:35:57.735Z,87.14
2022-11-22T00:38:25.999Z,87.32
2022-11-22T00:40:54.221Z,87.21
2022-11-22T00:43:22.262Z,87.20
2022-11-22T00:45:50.438Z,87.09
2022-11-22T00:48:18.913Z,86.96
2022-11-22T00:50:50.200Z,86.93
2022-11-22T00:53:18.807Z,86.97
2022-11-22T00:55:47.220Z,87.05
2022-11-22T00:58:15.482Z,86.75
2022-11-22T01:00:43.975Z,86.81
2022-11-22T01:03:13.611Z,86.62
2022-11-22T01:05:42.012Z,86.50
2022-11-22T01:08:10.519Z,86.44
2022-11-22T01:10:38.954Z,86.36
2022-11-22T01:13:07.345Z,86.20
2022-11-22T01:15:35.926Z,86.13
2022-11-22T01:18:04.626Z,86.20
2022-11-22T01:20:32.727Z,86.29
2022-11-22T01:23:01.115Z,86.41
2022-11-22T01:25:29.562Z,86.41
2022-11-22T01:27:57.668Z,86.33
2022-11-22T01:30:26.093Z,86.13
2022-11-22T01:32:54.374Z,86.00
2022-11-22T01:35:22.485Z,86.10
2022-11-22T01:37:50.787Z,86.05
2022-11-22T01:40:19.555Z,85.89
2022-11-22T01:42:56.166Z,85.85
2022-11-22T01:45:30.301Z,85.95
2022-11-22T01:48:02.382Z,86.16
2022-11-22T01:50:34.146Z,86.44
2022-11-22T01:53:09.894Z,86.38
2022-11-22T01:55:38.706Z,86.27
2022-11-22T01:58:08.324Z,86.34
2022-11-22T02:04:42.822Z,86.20
2022-11-22T02:07:19.538Z,86.00
2022-11-22T02:09:49.638Z,85.93
2022-11-22T02:12:19.202Z,86.12
2022-11-22T02:14:48.798Z,85.90
2022-11-22T02:17:17.320Z,85.90
2022-11-22T02:19:49.741Z,86.14
2022-11-22T02:22:44.242Z,86.41
2022-11-22T02:25:36.313Z,86.45
2022-11-22T02:28:05.073Z,86.50
2022-11-22T02:30:33.259Z,86.46
2022-11-22T02:33:01.399Z,86.36
2022-11-22T02:35:31.178Z,86.39
2022-11-22T02:38:03.396Z,86.38
2022-11-22T02:40:37.040Z,86.52
2022-11-22T02:43:37.602Z,86.82
2022-11-22T02:46:07.824Z,86.95
2022-11-22T02:48:41.653Z,87.15
2022-11-22T02:51:10.204Z,87.31
2022-11-22T02:53:38.458Z,87.27
2022-11-22T02:56:08.502Z,87.15
2022-11-22T02:58:37.093Z,87.00
2022-11-22T03:01:05.400Z,86.96
2022-11-22T03:03:36.323Z,86.88
2022-11-22T03:06:04.874Z,86.99
2022-11-22T03:08:33.457Z,86.92
2022-11-22T03:11:01.728Z,86.98
2022-11-22T03:13:30.438Z,86.74
2022-11-22T03:15:58.783Z,86.70
2022-11-22T03:18:26.865Z,86.57
2022-11-22T03:20:55.163Z,86.60
2022-11-22T03:23:23.471Z,86.57
2022-11-22T03:25:53.400Z,86.64
2022-11-22T03:28:23.419Z,86.82
2022-11-22T03:30:51.625Z,86.74
2022-11-22T03:33:19.646Z,86.87
2022-11-22T03:35:47.985Z,86.92
2022-11-22T03:38:16.227Z,86.83
2022-11-22T03:40:46.932Z,86.95
2022-11-22T03:43:15.257Z,87.19
2022-11-22T03:45:47.350Z,87.21
2022-11-22T03:48:18.657Z,87.27
2022-11-22T03:50:46.927Z,87.12
2022-11-22T03:53:15.114Z,87.12
2022-11-22T03:55:43.504Z,87.16
2022-11-22T03:58:11.668Z,87.01
2022-11-22T04:00:39.740Z,87.29
2022-11-22T04:03:07.940Z,87.29
2022-11-22T04:05:36.099Z,87.40
2022-11-22T04:08:04.409Z,87.26
2022-11-22T04:10:32.801Z,87.56
2022-11-22T04:13:00.939Z,87.52
2022-11-22T04:15:29.068Z,87.50
2022-11-22T04:17:57.383Z,87.74
2022-11-22T04:20:46.588Z,87.57
2022-11-22T04:23:18.976Z,87.44
2022-11-22T04:25:50.162Z,87.60
2022-11-22T04:28:35.370Z,87.76
2022-11-22T04:31:30.959Z,87.65
2022-11-22T04:33:59.145Z,87.68
2022-11-22T04:36:27.619Z,87.75
2022-11-22T04:38:59.605Z,87.89
2022-11-22T04:41:28.000Z,87.89
2022-11-22T04:44:14.809Z,87.67
2022-11-22T04:46:42.982Z,87.56
2022-11-22T04:49:11.397Z,87.62
2022-11-22T04:51:59.077Z,87.73
2022-11-22T04:54:27.310Z,87.78
2022-11-22T04:56:55.371Z,87.92
2022-11-22T04:59:23.734Z,87.88
2022-11-22T05:09:04.053Z,87.97
2022-11-22T05:11:36.690Z,87.98
2022-11-22T05:14:04.908Z,87.95
2022-11-22T05:16:33.261Z,87.88
2022-11-22T05:19:01.563Z,87.85
2022-11-22T05:21:30.301Z,87.87
2022-11-22T05:23:58.932Z,88.01
2022-11-22T05:26:30.354Z,87.96
2022-11-22T05:29:12.826Z,87.89
2022-11-22T05:31:46.873Z,88.04
2022-11-22T05:34:18.846Z,88.27
2022-11-22T05:36:47.184Z,88.17
2022-11-22T05:39:15.404Z,88.14
2022-11-22T05:41:56.268Z,88.06
2022-11-22T05:44:24.496Z,87.94
2022-11-22T05:46:52.915Z,88.11
2022-11-22T05:49:21.093Z,88.15
2022-11-22T05:51:49.192Z,88.35
2022-11-22T05:54:17.415Z,88.24
2022-11-22T05:56:45.728Z,88.38
2022-11-22T05:59:13.855Z,88.42
2022-11-22T06:01:42.310Z,88.45
2022-11-22T06:04:10.502Z,88.39
2022-11-22T06:06:38.540Z,88.40
2022-11-22T06:09:06.925Z,88.43
2022-11-22T06:11:35.417Z,88.52
2022-11-22T06:14:03.547Z,88.62
2022-11-22T06:16:31.975Z,88.75
2022-11-22T06:19:00.221Z,88.77
2022-11-22T06:21:28.799Z,88.72
2022-11-22T06:23:57.329Z,88.68
2022-11-22T06:26:26.353Z,88.82
2022-11-22T06:28:55.412Z,88.86
2022-11-22T06:31:26.642Z,88.91
2022-11-22T06:33:55.597Z,89.00
2022-11-22T06:36:29.178Z,89.10
2022-11-22T06:38:58.207Z,89.05
2022-11-22T06:41:34.814Z,89.13
2022-11-22T06:44:08.066Z,89.15
2022-11-22T06:46:37.542Z,89.10
2022-11-22T06:49:05.711Z,89.09
2022-11-22T06:51:34.285Z,89.15
2022-11-22T06:54:03.104Z,89.21
2022-11-22T06:56:36.325Z,89.25
2022-11-22T06:59:06.209Z,89.32
2022-11-22T07:01:35.683Z,89.34
2022-11-22T07:04:04.889Z,89.38
2022-11-22T07:06:38.777Z,89.32
2022-11-22T07:09:10.270Z,89.41
2022-11-22T07:11:39.608Z,89.48
2022-11-22T07:14:09.352Z,89.35
2022-11-22T07:16:38.755Z,89.38
2022-11-22T07:19:07.616Z,89.61
2022-11-22T07:21:37.441Z,89.69
2022-11-22T07:24:07.395Z,89.76
2022-11-22T07:26:35.673Z,89.85
2022-11-22T07:29:04.427Z,89.75
2022-11-22T07:31:33.000Z,89.78
2022-11-22T07:34:02.194Z,89.89
2022-11-22T07:36:30.502Z,89.93
2022-11-22T07:38:59.428Z,90.00
2022-11-22T07:41:27.566Z,89.95
2022-11-22T07:43:55.770Z,89.95
2022-11-22T07:46:29.475Z,90.09
2022-11-22T07:48:58.560Z,90.17
2022-11-22T07:51:27.562Z,90.14
2022-11-22T07:53:56.880Z,90.24
2022-11-22T07:56:25.092Z,90.07
2022-11-22T07:58:53.311Z,90.26
2022-11-22T08:01:22.190Z,90.30
2022-11-22T08:03:50.263Z,90.31
2022-11-22T08:06:18.570Z,90.41
2022-11-22T08:08:47.332Z,90.44
2022-11-22T08:11:15.546Z,90.49
2022-11-22T08:13:44.695Z,90.47
2022-11-22T08:16:16.366Z,90.74
2022-11-22T08:18:49.049Z,90.64
2022-11-22T08:21:18.901Z,90.69
2022-11-22T08:23:48.094Z,90.82
2022-11-22T08:26:17.880Z,90.85
2022-11-22T08:28:46.600Z,90.93
2022-11-22T08:31:19.074Z,90.85
2022-11-22T08:33:48.112Z,90.86
2022-11-22T08:36:16.275Z,90.87
2022-11-22T08:38:44.495Z,90.87
2022-11-22T08:41:12.935Z,90.95
2022-11-22T08:43:41.253Z,91.06
2022-11-22T08:46:09.688Z,91.01
2022-11-22T08:48:38.556Z,91.00
2022-11-22T08:51:10.465Z,90.89
2022-11-22T08:53:41.493Z,91.12
2022-11-22T08:56:11.402Z,91.13
2022-11-22T08:58:40.253Z,91.16
2022-11-22T09:01:14.634Z,91.12
2022-11-22T09:03:43.767Z,91.07
2022-11-22T09:09:30.123Z,90.78
2022-11-22T09:11:51.804Z,90.75
2022-11-22T09:14:20.316Z,90.78
2022-11-22T09:16:48.412Z,90.83
2022-11-22T09:19:16.546Z,90.71
2022-11-22T09:21:45.174Z,90.80
2022-11-22T09:24:13.273Z,90.72
2022-11-22T09:26:41.507Z,90.74
2022-11-22T09:29:12.176Z,90.58
2022-11-22T09:31:40.223Z,90.64
2022-11-22T09:34:11.153Z,90.83
2022-11-22T09:36:39.472Z,90.67
2022-11-22T09:39:08.899Z,90.71
2022-11-22T09:42:11.774Z,90.70
2022-11-22T09:45:01.269Z,90.45
2022-11-22T09:47:44.949Z,90.60
2022-11-22T09:50:29.824Z,90.50
2022-11-22T09:53:02.335Z,90.63
2022-11-22T09:55:47.239Z,90.52
2022-11-22T09:58:41.504Z,90.34
2022-11-22T10:01:22.601Z,90.32
2022-11-22T10:04:14.505Z,90.12
2022-11-22T10:06:57.258Z,89.82
2022-11-22T10:09:28.817Z,89.67
2022-11-22T10:12:16.213Z,89.63
2022-11-22T10:15:14.653Z,89.59
2022-11-22T10:17:56.990Z,89.53
2022-11-22T10:20:28.545Z,89.27
2022-11-22T10:22:58.427Z,89.05
2022-11-22T10:25:40.158Z,88.69
2022-11-22T10:28:37.247Z,88.44
2022-11-22T10:31:31.882Z,88.24
2022-11-22T10:34:43.405Z,88.41
2022-11-22T10:37:17.683Z,88.66
2022-11-22T10:40:17.323Z,88.88
2022-11-22T10:43:22.756Z,89.08
2022-11-22T10:46:01.794Z,89.06
2022-11-22T10:48:41.179Z,88.66
2022-11-22T10:51:18.462Z,88.12
2022-11-22T10:53:49.512Z,87.56
2022-11-22T10:56:25.508Z,87.43
2022-11-22T10:59:16.090Z,87.33
2022-11-22T11:01:56.524Z,86.80
2022-11-22T11:04:30.574Z,86.70
2022-11-22T11:07:17.179Z,86.18
2022-11-22T11:12:45.189Z,85.75
2022-11-22T11:15:20.217Z,85.71
2022-11-22T11:18:01.270Z,85.18
2022-11-22T11:20:35.836Z,84.84
2022-11-22T11:23:14.851Z,84.82
2022-11-22T11:25:49.220Z,84.85
2022-11-22T11:28:23.072Z,85.17
2022-11-22T11:30:55.348Z,84.84
2022-11-22T11:33:38.354Z,84.50
2022-11-22T11:36:08.527Z,84.53
2022-11-22T11:38:42.353Z,84.42
2022-11-22T11:41:24.438Z,84.59
2022-11-22T11:43:55.058Z,84.65
2022-11-22T11:46:23.455Z,84.64
2022-11-22T11:48:59.070Z,84.58
2022-11-22T11:51:43.059Z,84.43
2022-11-22T11:54:17.057Z,84.29
2022-11-22T11:57:04.514Z,84.45
2022-11-22T11:59:33.058Z,84.62
2022-11-22T12:02:22.476Z,84.20
2022-11-22T12:05:02.477Z,83.87
2022-11-22T12:07:33.849Z,83.99
2022-11-22T12:10:24.092Z,83.89
2022-11-22T12:13:04.409Z,83.88
2022-11-22T12:15:50.752Z,83.90
2022-11-22T12:18:25.789Z,83.94
2022-11-22T12:21:21.031Z,84.03
2022-11-22T12:24:41.357Z,83.66
2022-11-22T12:27:01.624Z,83.67
2022-11-22T12:29:35.501Z,83.61
2022-11-22T12:32:27.552Z,83.49
2022-11-22T12:35:13.594Z,83.28
2022-11-22T12:37:56.251Z,83.08
2022-11-22T12:40:31.770Z,83.06
2022-11-22T12:43:05.831Z,82.86
2022-11-22T12:45:42.416Z,82.83
2022-11-22T12:48:44.567Z,82.95
2022-11-22T12:51:53.968Z,82.86
2022-11-22T12:54:55.487Z,82.73
2022-11-22T12:57:33.421Z,82.47
2022-11-22T13:00:34.647Z,82.56
2022-11-22T13:03:13.115Z,82.46
2022-11-22T13:05:47.602Z,82.54
2022-11-22T13:08:22.985Z,82.41
2022-11-22T13:11:05.966Z,82.50
2022-11-22T13:13:45.366Z,82.34
2022-11-22T13:16:14.911Z,81.91
2022-11-22T13:19:04.568Z,82.01
2022-11-22T13:22:06.780Z,82.20
2022-11-22T13:24:53.812Z,82.13
2022-11-22T13:27:59.083Z,82.19
2022-11-22T13:30:29.724Z,82.22
2022-11-22T13:33:01.166Z,82.27
2022-11-22T13:35:38.621Z,82.25
2022-11-22T13:38:15.678Z,82.22
2022-11-22T13:40:52.078Z,82.23
2022-11-22T13:43:22.682Z,82.20
2022-11-22T13:45:55.916Z,82.23
2022-11-22T13:48:39.830Z,82.26
2022-11-22T13:51:30.728Z,82.24
2022-11-22T13:54:47.066Z,82.03
2022-11-22T13:57:26.295Z,82.31
2022-11-22T14:00:13.482Z,82.27
2022-11-22T14:02:53.467Z,82.45
2022-11-22T14:05:41.950Z,82.52
2022-11-22T14:08:29.576Z,82.38
2022-11-22T14:10:58.858Z,82.61
2022-11-22T14:13:33.299Z,82.50
2022-11-22T14:16:41.458Z,82.44
2022-11-22T14:19:47.111Z,82.47
2022-11-22T14:22:39.735Z,82.64
2022-11-22T14:25:33.194Z,82.66
2022-11-22T14:28:15.659Z,82.97
2022-11-22T14:30:54.198Z,82.92
2022-11-22T14:33:25.018Z,82.92
2022-11-22T14:36:09.536Z,82.99
2022-11-22T14:38:39.176Z,82.94
2022-11-22T14:41:30.528Z,82.98
2022-11-22T14:44:04.294Z,83.07
2022-11-22T14:46:52.879Z,83.17
2022-11-22T14:49:45.896Z,83.21
2022-11-22T14:52:23.511Z,83.33
2022-11-22T14:54:58.836Z,83.43
2022-11-22T14:57:32.562Z,83.42
2022-11-22T15:00:20.580Z,83.40
2022-11-22T15:03:00.523Z,83.48
2022-11-22T15:09:14.915Z,83.55
2022-11-22T15:09:50.644Z,83.67
2022-11-22T15:12:20.845Z,83.68
2022-11-22T15:14:54.845Z,83.85
2022-11-22T15:58:13.959Z,85.06
2022-11-22T16:00:43.825Z,85.33
2022-11-22T16:03:24.117Z,85.49
2022-11-22T16:06:05.900Z,85.42
2022-11-22T16:08:47.491Z,85.59
2022-11-22T16:11:29.550Z,85.67
2022-11-22T16:13:58.713Z,85.78
2022-11-22T16:16:31.489Z,85.84
2022-11-22T16:19:22.922Z,85.99
2022-11-22T16:21:58.406Z,86.05
2022-11-22T16:24:32.229Z,86.01
2022-11-22T16:27:12.885Z,86.00
2022-11-22T16:29:50.255Z,85.97
2022-11-22T16:32:19.916Z,86.15
2022-11-22T16:34:51.654Z,86.06
2022-11-22T16:37:36.423Z,86.14
2022-11-22T16:40:07.772Z,86.11
2022-11-22T16:42:41.376Z,86.13
2022-11-22T16:45:16.648Z,86.20
2022-11-22T16:47:54.170Z,86.22
2022-11-22T16:50:26.801Z,86.20
2022-11-22T16:53:01.455Z,86.30
2022-11-22T16:55:31.093Z,86.37
2022-11-22T16:57:59.492Z,86.33
2022-11-22T17:00:30.993Z,86.37
2022-11-22T17:02:59.443Z,86.50
2022-11-22T17:05:30.455Z,86.43
2022-11-22T17:07:58.598Z,86.34
2022-11-22T17:10:26.960Z,86.57
2022-11-22T17:12:55.281Z,86.61
2022-11-22T17:15:26.596Z,86.86
2022-11-22T17:17:55.296Z,86.85
2022-11-22T17:20:23.693Z,86.86
2022-11-22T17:22:51.869Z,86.95
2022-11-22T17:25:20.107Z,87.00
2022-11-22T17:27:53.859Z,87.13
2022-11-22T17:30:22.349Z,87.24
2022-11-22T17:32:50.549Z,87.41
2022-11-22T17:35:21.479Z,87.36
2022-11-22T17:37:53.694Z,87.50
2022-11-22T17:40:21.983Z,87.60
2022-11-22T17:42:50.156Z,87.62
2022-11-22T17:45:18.614Z,87.82
2022-11-22T17:47:46.774Z,87.89
2022-11-22T17:50:15.299Z,88.18
2022-11-22T17:52:43.830Z,88.11
2022-11-22T17:55:14.535Z,88.21
2022-11-22T17:57:42.885Z,88.21
2022-11-22T18:00:11.937Z,88.40
2022-11-22T18:02:41.023Z,88.37
2022-11-22T18:05:09.923Z,88.42
2022-11-22T18:07:39.262Z,88.45
2022-11-22T18:10:09.874Z,88.58
2022-11-22T18:12:42.325Z,88.51
2022-11-22T18:15:11.024Z,88.59
2022-11-22T18:17:39.126Z,88.49
2022-11-22T18:20:07.991Z,88.45
2022-11-22T18:22:36.561Z,88.50
2022-11-22T18:25:05.323Z,88.51
2022-11-22T18:27:42.021Z,88.66
2022-11-22T18:30:11.450Z,88.64
2022-11-22T18:32:39.588Z,88.80
2022-11-22T18:35:07.933Z,88.78
2022-11-22T18:37:36.231Z,88.72
2022-11-22T18:40:04.919Z,88.77
2022-11-22T18:42:33.111Z,88.62
2022-11-22T18:45:01.517Z,88.62
2022-11-22T18:47:29.661Z,88.65
2022-11-22T18:49:58.288Z,88.69
2022-11-22T18:52:27.143Z,88.78
2022-11-22T18:54:56.319Z,88.69
2022-11-22T18:57:24.449Z,88.80
2022-11-22T18:59:52.681Z,88.75
2022-11-22T19:02:25.794Z,88.68
2022-11-22T19:04:54.546Z,88.71
2022-11-22T19:07:23.498Z,88.68
2022-11-22T19:09:52.145Z,88.78
2022-11-22T19:12:20.595Z,88.74
2022-11-22T19:14:49.065Z,88.75
2022-11-22T19:17:21.902Z,88.60
2022-11-22T19:19:57.143Z,88.66
2022-11-22T19:22:26.464Z,88.58
2022-11-22T19:24:54.821Z,88.67
2022-11-22T19:27:24.280Z,88.62
2022-11-22T19:29:52.409Z,88.61
2022-11-22T19:32:20.635Z,88.58
2022-11-22T19:34:53.132Z,88.60
2022-11-22T19:37:21.330Z,88.71
2022-11-22T19:39:49.526Z,88.71
2022-11-22T19:42:17.923Z,88.81
2022-11-22T19:44:45.998Z,88.67
2022-11-22T19:47:15.954Z,88.75
2022-11-22T19:49:44.096Z,88.80
2022-11-22T19:52:12.158Z,88.75
2022-11-22T19:54:40.322Z,88.64
2022-11-22T19:57:08.488Z,88.68
2022-11-22T19:59:37.412Z,88.62
2022-11-22T20:02:05.895Z,88.51
2022-11-22T20:04:36.888Z,88.52
2022-11-22T20:07:05.068Z,88.60
2022-11-22T20:09:33.452Z,88.56
2022-11-22T20:12:01.760Z,88.56
2022-11-22T20:14:30.390Z,88.58
2022-11-22T20:16:58.679Z,88.73
2022-11-22T20:19:32.685Z,88.79
2022-11-22T20:22:02.402Z,88.65
2022-11-22T20:24:30.989Z,88.75
2022-11-22T20:26:59.483Z,88.77
2022-11-22T20:29:27.870Z,88.78
2022-11-22T20:31:56.831Z,88.77
2022-11-22T20:34:24.990Z,88.75
2022-11-22T20:36:54.281Z,88.80
2022-11-22T20:39:22.373Z,88.74
2022-11-22T20:42:05.908Z,88.76
2022-11-22T20:44:38.697Z,88.77
2022-11-22T20:47:08.717Z,88.87
2022-11-22T20:49:39.880Z,88.95
2022-11-22T20:52:12.306Z,88.92
2022-11-22T20:54:40.398Z,88.97
2022-11-22T20:57:08.489Z,88.98
2022-11-22T20:59:36.700Z,88.96
2022-11-22T21:02:09.033Z,89.02
2022-11-22T21:04:37.725Z,88.98
2022-11-22T21:07:05.944Z,89.06
2022-11-22T21:09:37.207Z,89.09
2022-11-22T21:12:05.665Z,89.08
2022-11-22T21:14:34.096Z,89.06
2022-11-22T21:17:22.753Z,89.15
2022-11-22T21:19:50.541Z,89.09
2022-11-22T21:22:18.670Z,89.11
2022-11-22T21:24:46.695Z,89.18
2022-11-22T21:27:14.934Z,89.16
2022-11-22T21:29:42.973Z,89.20
2022-11-22T21:32:11.172Z,89.18
2022-11-22T21:34:39.427Z,89.24
2022-11-22T21:37:10.532Z,89.33
2022-11-22T21:39:38.547Z,89.27
2022-11-22T21:42:07.140Z,89.36
2022-11-22T21:44:35.341Z,89.49
2022-11-22T21:47:03.542Z,89.54
2022-11-22T21:49:31.900Z,89.58
2022-11-22T21:52:00.139Z,89.67
2022-11-22T21:54:28.349Z,89.65
2022-11-22T21:57:02.488Z,89.62
2022-11-22T21:59:32.635Z,89.70
2022-11-22T22:02:01.370Z,89.61
2022-11-22T22:04:31.302Z,89.51
2022-11-22T22:06:59.510Z,89.53
2022-11-22T22:09:27.701Z,89.57
2022-11-22T22:11:55.771Z,89.63
2022-11-22T22:14:26.460Z,89.68
2022-11-22T22:16:54.798Z,89.81
2022-11-22T22:19:22.958Z,89.78
2022-11-22T22:21:51.058Z,89.71
2022-11-22T22:24:19.705Z,89.67
2022-11-22T22:26:49.581Z,89.87
2022-11-22T22:29:17.842Z,89.94
2022-11-22T22:31:48.630Z,89.96
2022-11-22T22:34:18.287Z,89.79
2022-11-22T22:36:46.641Z,89.83
2022-11-22T22:39:14.806Z,90.04
2022-11-22T22:41:43.144Z,89.88
2022-11-22T22:44:11.193Z,90.02
2022-11-22T22:46:39.545Z,90.02
2022-11-22T22:49:10.644Z,90.05
2022-11-22T22:51:38.578Z,90.07
2022-11-22T22:54:06.808Z,90.12
2022-11-22T22:56:35.022Z,90.01
2022-11-22T22:59:05.264Z,90.16
2022-11-22T23:01:33.608Z,90.12
2022-11-22T23:04:02.477Z,90.16
2022-11-22T23:06:33.300Z,90.08
2022-11-22T23:09:03.126Z,90.16
2022-11-22T23:11:50.784Z,90.19
2022-11-22T23:14:21.995Z,90.20
2022-11-22T23:16:55.939Z,90.24
2022-11-22T23:19:30.913Z,90.10
2022-11-22T23:22:01.917Z,90.15
2022-11-22T23:24:32.122Z,90.15
2022-11-22T23:27:01.138Z,90.08
2022-11-22T23:29:29.584Z,90.18
2022-11-22T23:31:58.079Z,90.18
2022-11-22T23:34:26.386Z,90.13
2022-11-22T23:36:54.478Z,90.13
2022-11-22T23:39:24.125Z,90.13
2022-11-22T23:41:52.359Z,90.05
2022-11-22T23:44:20.407Z,90.08
2022-11-22T23:46:48.650Z,90.08
2022-11-22T23:49:16.805Z,90.08
2022-11-22T23:51:46.277Z,90.08
2022-11-22T23:54:14.536Z,90.08
2022-11-22T23:56:42.889Z,90.12
2022-11-22T23:59:11.006Z,90.02
